sensor_id;sensor_type;location;lat;lon;timestamp;P1;durP1;ratioP1;P2;durP2;ratioP2
30173;SDS011;16985;50.814;8.530;2023-02-28T00:01:19;3.42;;;2.42;;
30173;SDS011;16985;50.814;8.530;2023-02-28T00:03:47;6.30;;;3.05;;
30173;SDS011;16985;50.814;8.530;2023-02-28T00:08:39;4.80;;;2.67;;
30173;SDS011;16985;50.814;8.530;2023-02-28T00:11:07;8.48;;;3.13;;
30173;SDS011;16985;50.814;8.530;2023-02-28T00:13:38;3.67;;;2.80;;
30173;SDS011;16985;50.814;8.530;2023-02-28T00:16:09;7.85;;;3.13;;
30173;SDS011;16985;50.814;8.530;2023-02-28T00:18:38;6.57;;;3.38;;
30173;SDS011;16985;50.814;8.530;2023-02-28T00:21:05;6.28;;;3.22;;
30173;SDS011;16985;50.814;8.530;2023-02-28T00:23:31;6.78;;;3.35;;
30173;SDS011;16985;50.814;8.530;2023-02-28T00:25:57;8.98;;;3.20;;
30173;SDS011;16985;50.814;8.530;2023-02-28T00:28:22;6.03;;;4.22;;
30173;SDS011;16985;50.814;8.530;2023-02-28T00:30:49;5.20;;;3.28;;
30173;SDS011;16985;50.814;8.530;2023-02-28T00:33:15;6.20;;;3.08;;
30173;SDS011;16985;50.814;8.530;2023-02-28T00:35:41;5.30;;;3.10;;
30173;SDS011;16985;50.814;8.530;2023-02-28T00:38:08;4.03;;;2.80;;
30173;SDS011;16985;50.814;8.530;2023-02-28T00:40:35;5.68;;;2.78;;
30173;SDS011;16985;50.814;8.530;2023-02-28T00:43:01;5.30;;;3.13;;
30173;SDS011;16985;50.814;8.530;2023-02-28T00:45:28;10.30;;;2.80;;
30173;SDS011;16985;50.814;8.530;2023-02-28T00:47:53;4.32;;;2.90;;
30173;SDS011;16985;50.814;8.530;2023-02-28T00:50:19;4.95;;;2.80;;
30173;SDS011;16985;50.814;8.530;2023-02-28T00:52:46;3.83;;;3.03;;
30173;SDS011;16985;50.814;8.530;2023-02-28T00:55:13;3.85;;;2.55;;
30173;SDS011;16985;50.814;8.530;2023-02-28T00:57:40;5.13;;;3.33;;
30173;SDS011;16985;50.814;8.530;2023-02-28T01:00:06;5.05;;;2.80;;
30173;SDS011;16985;50.814;8.530;2023-02-28T01:02:33;5.88;;;3.53;;
30173;SDS011;16985;50.814;8.530;2023-02-28T01:04:59;4.68;;;3.03;;
30173;SDS011;16985;50.814;8.530;2023-02-28T01:07:28;4.05;;;2.90;;
30173;SDS011;16985;50.814;8.530;2023-02-28T01:09:54;4.05;;;2.72;;
30173;SDS011;16985;50.814;8.530;2023-02-28T01:12:20;8.52;;;3.50;;
30173;SDS011;16985;50.814;8.530;2023-02-28T01:14:46;4.10;;;2.80;;
30173;SDS011;16985;50.814;8.530;2023-02-28T01:17:11;7.13;;;3.80;;
30173;SDS011;16985;50.814;8.530;2023-02-28T01:19:37;4.72;;;3.22;;
30173;SDS011;16985;50.814;8.530;2023-02-28T01:22:04;5.07;;;3.30;;
30173;SDS011;16985;50.814;8.530;2023-02-28T01:24:31;5.60;;;3.30;;
30173;SDS011;16985;50.814;8.530;2023-02-28T01:26:57;3.80;;;3.22;;
30173;SDS011;16985;50.814;8.530;2023-02-28T01:29:24;5.65;;;3.40;;
30173;SDS011;16985;50.814;8.530;2023-02-28T01:31:51;5.10;;;3.70;;
30173;SDS011;16985;50.814;8.530;2023-02-28T01:34:17;8.23;;;4.10;;
30173;SDS011;16985;50.814;8.530;2023-02-28T01:36:44;6.15;;;3.75;;
30173;SDS011;16985;50.814;8.530;2023-02-28T01:39:10;4.05;;;3.65;;
30173;SDS011;16985;50.814;8.530;2023-02-28T01:41:37;6.85;;;3.42;;
30173;SDS011;16985;50.814;8.530;2023-02-28T01:44:07;5.80;;;3.10;;
30173;SDS011;16985;50.814;8.530;2023-02-28T01:47:19;7.45;;;4.35;;
30173;SDS011;16985;50.814;8.530;2023-02-28T01:49:46;3.88;;;3.42;;
30173;SDS011;16985;50.814;8.530;2023-02-28T01:52:12;5.53;;;3.25;;
30173;SDS011;16985;50.814;8.530;2023-02-28T01:54:43;5.20;;;3.65;;
30173;SDS011;16985;50.814;8.530;2023-02-28T01:57:16;5.28;;;3.30;;
30173;SDS011;16985;50.814;8.530;2023-02-28T01:59:50;8.77;;;5.35;;
30173;SDS011;16985;50.814;8.530;2023-02-28T02:02:23;4.55;;;3.50;;
30173;SDS011;16985;50.814;8.530;2023-02-28T02:04:54;6.60;;;3.38;;
30173;SDS011;16985;50.814;8.530;2023-02-28T02:07:23;7.57;;;3.80;;
30173;SDS011;16985;50.814;8.530;2023-02-28T02:09:59;5.47;;;3.70;;
30173;SDS011;16985;50.814;8.530;2023-02-28T02:23:59;7.07;;;3.78;;
30173;SDS011;16985;50.814;8.530;2023-02-28T02:29:34;4.07;;;3.60;;
30173;SDS011;16985;50.814;8.530;2023-02-28T02:35:42;5.63;;;3.78;;
30173;SDS011;16985;50.814;8.530;2023-02-28T02:38:26;5.47;;;3.95;;
30173;SDS011;16985;50.814;8.530;2023-02-28T02:41:31;5.40;;;3.53;;
30173;SDS011;16985;50.814;8.530;2023-02-28T02:44:28;7.97;;;4.03;;
30173;SDS011;16985;50.814;8.530;2023-02-28T02:47:02;6.43;;;3.60;;
30173;SDS011;16985;50.814;8.530;2023-02-28T02:49:35;4.72;;;3.83;;
30173;SDS011;16985;50.814;8.530;2023-02-28T02:52:09;5.00;;;3.60;;
30173;SDS011;16985;50.814;8.530;2023-02-28T02:54:38;4.63;;;4.15;;
30173;SDS011;16985;50.814;8.530;2023-02-28T02:57:11;6.50;;;3.83;;
30173;SDS011;16985;50.814;8.530;2023-02-28T02:59:51;7.15;;;3.75;;
30173;SDS011;16985;50.814;8.530;2023-02-28T03:02:19;5.40;;;4.30;;
30173;SDS011;16985;50.814;8.530;2023-02-28T03:04:51;3.95;;;3.55;;
30173;SDS011;16985;50.814;8.530;2023-02-28T03:07:25;7.07;;;5.10;;
30173;SDS011;16985;50.814;8.530;2023-02-28T03:09:53;8.07;;;4.63;;
30173;SDS011;16985;50.814;8.530;2023-02-28T03:12:20;8.40;;;4.05;;
30173;SDS011;16985;50.814;8.530;2023-02-28T03:15:18;4.95;;;3.80;;
30173;SDS011;16985;50.814;8.530;2023-02-28T03:18:01;6.75;;;4.10;;
30173;SDS011;16985;50.814;8.530;2023-02-28T03:20:50;5.95;;;4.18;;
30173;SDS011;16985;50.814;8.530;2023-02-28T03:27:05;5.18;;;4.55;;
30173;SDS011;16985;50.814;8.530;2023-02-28T03:29:47;7.75;;;4.38;;
30173;SDS011;16985;50.814;8.530;2023-02-28T03:32:27;7.68;;;4.43;;
30173;SDS011;16985;50.814;8.530;2023-02-28T03:37:47;6.70;;;3.97;;
30173;SDS011;16985;50.814;8.530;2023-02-28T03:40:30;6.03;;;3.80;;
30173;SDS011;16985;50.814;8.530;2023-02-28T03:42:59;5.88;;;3.80;;
30173;SDS011;16985;50.814;8.530;2023-02-28T03:45:36;5.68;;;4.03;;
30173;SDS011;16985;50.814;8.530;2023-02-28T03:50:45;7.13;;;3.72;;
30173;SDS011;16985;50.814;8.530;2023-02-28T03:53:19;3.63;;;3.30;;
30173;SDS011;16985;50.814;8.530;2023-02-28T03:56:03;5.75;;;4.45;;
30173;SDS011;16985;50.814;8.530;2023-02-28T03:59:04;8.20;;;4.15;;
30173;SDS011;16985;50.814;8.530;2023-02-28T04:01:38;7.65;;;4.38;;
30173;SDS011;16985;50.814;8.530;2023-02-28T04:04:12;4.78;;;3.58;;
30173;SDS011;16985;50.814;8.530;2023-02-28T04:06:39;7.82;;;4.45;;
30173;SDS011;16985;50.814;8.530;2023-02-28T04:09:06;4.82;;;3.95;;
30173;SDS011;16985;50.814;8.530;2023-02-28T04:11:36;5.22;;;3.95;;
30173;SDS011;16985;50.814;8.530;2023-02-28T04:14:07;6.65;;;4.13;;
30173;SDS011;16985;50.814;8.530;2023-02-28T04:16:35;4.05;;;3.65;;
30173;SDS011;16985;50.814;8.530;2023-02-28T04:19:04;5.80;;;3.80;;
30173;SDS011;16985;50.814;8.530;2023-02-28T04:21:33;5.20;;;3.50;;
30173;SDS011;16985;50.814;8.530;2023-02-28T04:24:04;5.22;;;3.55;;
30173;SDS011;16985;50.814;8.530;2023-02-28T04:26:33;5.10;;;3.13;;
30173;SDS011;16985;50.814;8.530;2023-02-28T04:29:02;5.32;;;3.45;;
30173;SDS011;16985;50.814;8.530;2023-02-28T04:31:29;6.10;;;3.78;;
30173;SDS011;16985;50.814;8.530;2023-02-28T04:33:56;4.28;;;3.80;;
30173;SDS011;16985;50.814;8.530;2023-02-28T04:36:21;4.50;;;3.85;;
30173;SDS011;16985;50.814;8.530;2023-02-28T04:38:48;5.55;;;4.28;;
30173;SDS011;16985;50.814;8.530;2023-02-28T04:41:14;7.07;;;3.95;;
30173;SDS011;16985;50.814;8.530;2023-02-28T04:43:40;3.65;;;3.33;;
30173;SDS011;16985;50.814;8.530;2023-02-28T04:46:06;6.05;;;4.70;;
30173;SDS011;16985;50.814;8.530;2023-02-28T04:48:33;4.82;;;3.97;;
30173;SDS011;16985;50.814;8.530;2023-02-28T04:51:01;7.57;;;4.03;;
30173;SDS011;16985;50.814;8.530;2023-02-28T04:53:32;4.90;;;4.10;;
30173;SDS011;16985;50.814;8.530;2023-02-28T04:55:58;5.53;;;4.05;;
30173;SDS011;16985;50.814;8.530;2023-02-28T04:58:24;4.85;;;3.53;;
30173;SDS011;16985;50.814;8.530;2023-02-28T05:00:50;5.75;;;4.18;;
30173;SDS011;16985;50.814;8.530;2023-02-28T05:03:17;5.63;;;3.60;;
30173;SDS011;16985;50.814;8.530;2023-02-28T05:05:42;6.55;;;3.75;;
30173;SDS011;16985;50.814;8.530;2023-02-28T05:08:08;4.60;;;3.92;;
30173;SDS011;16985;50.814;8.530;2023-02-28T05:10:34;4.90;;;3.75;;
30173;SDS011;16985;50.814;8.530;2023-02-28T05:13:01;6.30;;;3.92;;
30173;SDS011;16985;50.814;8.530;2023-02-28T05:15:27;6.10;;;3.83;;
30173;SDS011;16985;50.814;8.530;2023-02-28T05:17:53;5.95;;;3.70;;
30173;SDS011;16985;50.814;8.530;2023-02-28T05:20:19;4.35;;;3.47;;
30173;SDS011;16985;50.814;8.530;2023-02-28T05:22:46;4.60;;;3.75;;
30173;SDS011;16985;50.814;8.530;2023-02-28T05:25:13;7.07;;;3.42;;
30173;SDS011;16985;50.814;8.530;2023-02-28T05:27:43;7.90;;;3.75;;
30173;SDS011;16985;50.814;8.530;2023-02-28T05:30:09;4.55;;;3.70;;
30173;SDS011;16985;50.814;8.530;2023-02-28T05:32:37;7.13;;;3.97;;
30173;SDS011;16985;50.814;8.530;2023-02-28T05:35:04;5.53;;;3.53;;
30173;SDS011;16985;50.814;8.530;2023-02-28T05:37:31;4.90;;;3.67;;
30173;SDS011;16985;50.814;8.530;2023-02-28T05:39:56;5.20;;;3.72;;
30173;SDS011;16985;50.814;8.530;2023-02-28T05:42:22;5.15;;;3.60;;
30173;SDS011;16985;50.814;8.530;2023-02-28T05:44:48;5.57;;;3.92;;
30173;SDS011;16985;50.814;8.530;2023-02-28T05:47:14;7.53;;;3.70;;
30173;SDS011;16985;50.814;8.530;2023-02-28T05:49:41;3.97;;;3.50;;
30173;SDS011;16985;50.814;8.530;2023-02-28T05:52:07;4.05;;;3.15;;
30173;SDS011;16985;50.814;8.530;2023-02-28T05:54:33;5.88;;;3.45;;
30173;SDS011;16985;50.814;8.530;2023-02-28T05:56:59;4.93;;;3.38;;
30173;SDS011;16985;50.814;8.530;2023-02-28T05:59:24;9.02;;;3.50;;
30173;SDS011;16985;50.814;8.530;2023-02-28T06:01:50;4.50;;;4.03;;
30173;SDS011;16985;50.814;8.530;2023-02-28T06:04:18;5.10;;;3.17;;
30173;SDS011;16985;50.814;8.530;2023-02-28T06:06:49;4.75;;;3.83;;
30173;SDS011;16985;50.814;8.530;2023-02-28T06:09:16;6.35;;;3.75;;
30173;SDS011;16985;50.814;8.530;2023-02-28T06:11:43;6.70;;;3.17;;
30173;SDS011;16985;50.814;8.530;2023-02-28T06:14:14;5.68;;;3.75;;
30173;SDS011;16985;50.814;8.530;2023-02-28T06:16:42;6.32;;;3.45;;
30173;SDS011;16985;50.814;8.530;2023-02-28T06:19:08;4.18;;;2.78;;
30173;SDS011;16985;50.814;8.530;2023-02-28T06:21:35;5.72;;;3.20;;
30173;SDS011;16985;50.814;8.530;2023-02-28T06:24:01;3.97;;;3.05;;
30173;SDS011;16985;50.814;8.530;2023-02-28T06:26:28;4.25;;;3.00;;
30173;SDS011;16985;50.814;8.530;2023-02-28T06:28:54;4.88;;;3.15;;
30173;SDS011;16985;50.814;8.530;2023-02-28T06:31:20;4.60;;;3.13;;
30173;SDS011;16985;50.814;8.530;2023-02-28T06:33:47;3.55;;;2.85;;
30173;SDS011;16985;50.814;8.530;2023-02-28T06:36:14;4.13;;;3.05;;
30173;SDS011;16985;50.814;8.530;2023-02-28T06:38:41;4.10;;;3.30;;
30173;SDS011;16985;50.814;8.530;2023-02-28T06:41:08;4.05;;;2.92;;
30173;SDS011;16985;50.814;8.530;2023-02-28T06:43:37;5.07;;;3.08;;
30173;SDS011;16985;50.814;8.530;2023-02-28T06:46:07;6.18;;;2.95;;
30173;SDS011;16985;50.814;8.530;2023-02-28T06:48:36;6.80;;;3.45;;
30173;SDS011;16985;50.814;8.530;2023-02-28T06:51:03;3.65;;;2.47;;
30173;SDS011;16985;50.814;8.530;2023-02-28T06:53:34;3.78;;;3.10;;
30173;SDS011;16985;50.814;8.530;2023-02-28T06:56:04;5.72;;;3.00;;
30173;SDS011;16985;50.814;8.530;2023-02-28T06:58:36;5.50;;;3.00;;
30173;SDS011;16985;50.814;8.530;2023-02-28T07:01:04;9.45;;;3.25;;
30173;SDS011;16985;50.814;8.530;2023-02-28T07:03:31;5.32;;;3.53;;
30173;SDS011;16985;50.814;8.530;2023-02-28T07:05:57;6.60;;;3.05;;
30173;SDS011;16985;50.814;8.530;2023-02-28T07:08:23;4.88;;;3.22;;
30173;SDS011;16985;50.814;8.530;2023-02-28T07:10:53;8.20;;;3.00;;
30173;SDS011;16985;50.814;8.530;2023-02-28T07:13:20;4.57;;;3.22;;
30173;SDS011;16985;50.814;8.530;2023-02-28T07:15:56;3.25;;;2.90;;
30173;SDS011;16985;50.814;8.530;2023-02-28T07:18:26;7.32;;;3.67;;
30173;SDS011;16985;50.814;8.530;2023-02-28T07:20:52;3.53;;;3.20;;
30173;SDS011;16985;50.814;8.530;2023-02-28T07:23:18;4.75;;;3.00;;
30173;SDS011;16985;50.814;8.530;2023-02-28T07:25:45;5.70;;;3.08;;
30173;SDS011;16985;50.814;8.530;2023-02-28T07:28:11;11.20;;;3.47;;
30173;SDS011;16985;50.814;8.530;2023-02-28T07:30:38;7.68;;;3.53;;
30173;SDS011;16985;50.814;8.530;2023-02-28T07:33:05;8.43;;;3.53;;
30173;SDS011;16985;50.814;8.530;2023-02-28T07:35:31;4.60;;;3.17;;
30173;SDS011;16985;50.814;8.530;2023-02-28T07:37:57;4.35;;;3.17;;
30173;SDS011;16985;50.814;8.530;2023-02-28T07:40:27;4.85;;;3.20;;
30173;SDS011;16985;50.814;8.530;2023-02-28T07:42:52;4.80;;;3.30;;
30173;SDS011;16985;50.814;8.530;2023-02-28T07:45:18;3.95;;;3.65;;
30173;SDS011;16985;50.814;8.530;2023-02-28T07:47:44;4.43;;;3.10;;
30173;SDS011;16985;50.814;8.530;2023-02-28T07:50:12;4.78;;;3.15;;
30173;SDS011;16985;50.814;8.530;2023-02-28T07:52:40;5.97;;;3.17;;
30173;SDS011;16985;50.814;8.530;2023-02-28T07:55:06;4.97;;;3.33;;
30173;SDS011;16985;50.814;8.530;2023-02-28T07:57:34;4.95;;;3.05;;
30173;SDS011;16985;50.814;8.530;2023-02-28T08:00:00;3.60;;;3.20;;
30173;SDS011;16985;50.814;8.530;2023-02-28T08:02:36;5.57;;;3.20;;
30173;SDS011;16985;50.814;8.530;2023-02-28T08:05:02;3.05;;;2.75;;
30173;SDS011;16985;50.814;8.530;2023-02-28T08:07:28;3.50;;;2.97;;
30173;SDS011;16985;50.814;8.530;2023-02-28T08:09:54;7.43;;;3.22;;
30173;SDS011;16985;50.814;8.530;2023-02-28T08:12:20;6.47;;;3.53;;
30173;SDS011;16985;50.814;8.530;2023-02-28T08:14:46;6.45;;;3.67;;
30173;SDS011;16985;50.814;8.530;2023-02-28T08:17:11;6.22;;;3.60;;
30173;SDS011;16985;50.814;8.530;2023-02-28T08:19:37;5.78;;;3.58;;
30173;SDS011;16985;50.814;8.530;2023-02-28T08:22:03;4.65;;;3.28;;
30173;SDS011;16985;50.814;8.530;2023-02-28T08:24:30;8.98;;;3.35;;
30173;SDS011;16985;50.814;8.530;2023-02-28T08:26:56;4.07;;;3.05;;
30173;SDS011;16985;50.814;8.530;2023-02-28T08:29:22;4.75;;;3.10;;
30173;SDS011;16985;50.814;8.530;2023-02-28T08:31:48;15.93;;;3.00;;
30173;SDS011;16985;50.814;8.530;2023-02-28T08:34:14;14.60;;;3.03;;
30173;SDS011;16985;50.814;8.530;2023-02-28T08:36:41;4.85;;;3.35;;
30173;SDS011;16985;50.814;8.530;2023-02-28T08:39:09;3.05;;;2.65;;
30173;SDS011;16985;50.814;8.530;2023-02-28T08:41:36;10.18;;;3.83;;
30173;SDS011;16985;50.814;8.530;2023-02-28T08:44:02;4.00;;;3.13;;
30173;SDS011;16985;50.814;8.530;2023-02-28T08:46:28;4.13;;;3.03;;
30173;SDS011;16985;50.814;8.530;2023-02-28T08:48:54;6.05;;;3.05;;
30173;SDS011;16985;50.814;8.530;2023-02-28T08:51:24;4.43;;;3.08;;
30173;SDS011;16985;50.814;8.530;2023-02-28T08:53:53;7.25;;;3.40;;
30173;SDS011;16985;50.814;8.530;2023-02-28T08:56:23;5.07;;;3.33;;
30173;SDS011;16985;50.814;8.530;2023-02-28T08:58:50;4.25;;;3.30;;
30173;SDS011;16985;50.814;8.530;2023-02-28T09:01:17;5.72;;;2.83;;
30173;SDS011;16985;50.814;8.530;2023-02-28T09:03:45;5.15;;;3.08;;
30173;SDS011;16985;50.814;8.530;2023-02-28T09:06:13;6.18;;;2.92;;
30173;SDS011;16985;50.814;8.530;2023-02-28T09:08:41;5.38;;;3.08;;
30173;SDS011;16985;50.814;8.530;2023-02-28T09:11:07;5.35;;;3.17;;
30173;SDS011;16985;50.814;8.530;2023-02-28T09:13:34;6.45;;;3.30;;
30173;SDS011;16985;50.814;8.530;2023-02-28T09:16:01;4.18;;;3.28;;
30173;SDS011;16985;50.814;8.530;2023-02-28T09:18:29;3.92;;;3.13;;
30173;SDS011;16985;50.814;8.530;2023-02-28T09:20:55;6.70;;;3.47;;
30173;SDS011;16985;50.814;8.530;2023-02-28T09:23:22;6.65;;;4.00;;
30173;SDS011;16985;50.814;8.530;2023-02-28T09:25:50;5.88;;;3.78;;
30173;SDS011;16985;50.814;8.530;2023-02-28T09:28:19;6.30;;;3.70;;
30173;SDS011;16985;50.814;8.530;2023-02-28T09:30:46;9.40;;;4.05;;
30173;SDS011;16985;50.814;8.530;2023-02-28T09:33:14;8.00;;;3.83;;
30173;SDS011;16985;50.814;8.530;2023-02-28T09:35:42;5.57;;;3.85;;
30173;SDS011;16985;50.814;8.530;2023-02-28T09:38:08;6.15;;;3.35;;
30173;SDS011;16985;50.814;8.530;2023-02-28T09:40:35;5.50;;;3.33;;
30173;SDS011;16985;50.814;8.530;2023-02-28T09:43:17;8.20;;;3.75;;
30173;SDS011;16985;50.814;8.530;2023-02-28T09:45:55;7.47;;;3.78;;
30173;SDS011;16985;50.814;8.530;2023-02-28T09:49:05;6.40;;;3.67;;
30173;SDS011;16985;50.814;8.530;2023-02-28T09:51:46;5.38;;;3.50;;
30173;SDS011;16985;50.814;8.530;2023-02-28T09:54:22;7.10;;;3.72;;
30173;SDS011;16985;50.814;8.530;2023-02-28T09:57:02;6.05;;;3.70;;
30173;SDS011;16985;50.814;8.530;2023-02-28T10:00:28;6.07;;;3.65;;
30173;SDS011;16985;50.814;8.530;2023-02-28T10:05:52;4.95;;;3.85;;
30173;SDS011;16985;50.814;8.530;2023-02-28T10:08:45;4.85;;;3.55;;
30173;SDS011;16985;50.814;8.530;2023-02-28T10:11:42;6.57;;;3.95;;
30173;SDS011;16985;50.814;8.530;2023-02-28T10:16:59;7.85;;;3.78;;
30173;SDS011;16985;50.814;8.530;2023-02-28T10:19:39;5.40;;;3.85;;
30173;SDS011;16985;50.814;8.530;2023-02-28T10:22:22;5.30;;;3.60;;
30173;SDS011;16985;50.814;8.530;2023-02-28T10:25:00;9.68;;;6.63;;
30173;SDS011;16985;50.814;8.530;2023-02-28T10:27:40;7.43;;;4.93;;
30173;SDS011;16985;50.814;8.530;2023-02-28T10:30:06;9.63;;;5.38;;
30173;SDS011;16985;50.814;8.530;2023-02-28T10:32:36;9.60;;;4.47;;
30173;SDS011;16985;50.814;8.530;2023-02-28T10:35:10;7.35;;;3.80;;
30173;SDS011;16985;50.814;8.530;2023-02-28T10:37:41;6.93;;;5.25;;
30173;SDS011;16985;50.814;8.530;2023-02-28T10:45:39;5.72;;;4.40;;
30173;SDS011;16985;50.814;8.530;2023-02-28T10:50:50;8.80;;;4.28;;
30173;SDS011;16985;50.814;8.530;2023-02-28T10:55:56;6.72;;;3.80;;
30173;SDS011;16985;50.814;8.530;2023-02-28T10:58:23;6.15;;;4.05;;
30173;SDS011;16985;50.814;8.530;2023-02-28T11:00:55;5.05;;;3.45;;
30173;SDS011;16985;50.814;8.530;2023-02-28T11:03:30;5.78;;;3.72;;
30173;SDS011;16985;50.814;8.530;2023-02-28T11:06:03;7.00;;;4.25;;
30173;SDS011;16985;50.814;8.530;2023-02-28T11:08:33;11.95;;;4.72;;
30173;SDS011;16985;50.814;8.530;2023-02-28T11:11:01;7.40;;;4.50;;
30173;SDS011;16985;50.814;8.530;2023-02-28T11:13:35;10.85;;;5.20;;
30173;SDS011;16985;50.814;8.530;2023-02-28T11:16:05;5.13;;;4.07;;
30173;SDS011;16985;50.814;8.530;2023-02-28T11:18:50;9.90;;;4.55;;
30173;SDS011;16985;50.814;8.530;2023-02-28T11:21:26;5.22;;;4.18;;
30173;SDS011;16985;50.814;8.530;2023-02-28T11:27:11;7.40;;;5.10;;
30173;SDS011;16985;50.814;8.530;2023-02-28T11:29:56;8.38;;;5.55;;
30173;SDS011;16985;50.814;8.530;2023-02-28T11:32:28;6.50;;;4.95;;
30173;SDS011;16985;50.814;8.530;2023-02-28T11:37:36;7.88;;;4.55;;
30173;SDS011;16985;50.814;8.530;2023-02-28T11:40:14;6.82;;;4.65;;
30173;SDS011;16985;50.814;8.530;2023-02-28T11:51:48;13.68;;;7.03;;
30173;SDS011;16985;50.814;8.530;2023-02-28T11:54:30;11.18;;;6.57;;
30173;SDS011;16985;50.814;8.530;2023-02-28T12:00:28;9.00;;;4.78;;
30173;SDS011;16985;50.814;8.530;2023-02-28T12:20:54;7.30;;;5.20;;
30173;SDS011;16985;50.814;8.530;2023-02-28T12:26:34;6.18;;;4.88;;
30173;SDS011;16985;50.814;8.530;2023-02-28T12:29:11;8.85;;;5.65;;
30173;SDS011;16985;50.814;8.530;2023-02-28T12:31:45;10.65;;;6.50;;
30173;SDS011;16985;50.814;8.530;2023-02-28T12:34:16;14.38;;;6.53;;
30173;SDS011;16985;50.814;8.530;2023-02-28T12:36:46;10.05;;;6.22;;
30173;SDS011;16985;50.814;8.530;2023-02-28T12:39:26;9.20;;;5.93;;
30173;SDS011;16985;50.814;8.530;2023-02-28T12:42:09;10.52;;;6.50;;
30173;SDS011;16985;50.814;8.530;2023-02-28T12:47:50;8.50;;;5.55;;
30173;SDS011;16985;50.814;8.530;2023-02-28T12:50:23;8.38;;;5.43;;
30173;SDS011;16985;50.814;8.530;2023-02-28T12:52:55;7.80;;;4.97;;
30173;SDS011;16985;50.814;8.530;2023-02-28T12:58:14;7.85;;;5.35;;
30173;SDS011;16985;50.814;8.530;2023-02-28T13:10:07;12.20;;;4.82;;
30173;SDS011;16985;50.814;8.530;2023-02-28T13:12:34;6.80;;;4.93;;
30173;SDS011;16985;50.814;8.530;2023-02-28T13:15:02;12.30;;;5.70;;
30173;SDS011;16985;50.814;8.530;2023-02-28T13:17:44;10.88;;;6.28;;
30173;SDS011;16985;50.814;8.530;2023-02-28T13:20:16;8.88;;;5.75;;
30173;SDS011;16985;50.814;8.530;2023-02-28T13:22:49;7.03;;;5.70;;
30173;SDS011;16985;50.814;8.530;2023-02-28T13:28:10;5.75;;;4.68;;
30173;SDS011;16985;50.814;8.530;2023-02-28T13:33:24;6.15;;;4.57;;
30173;SDS011;16985;50.814;8.530;2023-02-28T13:38:39;8.82;;;4.90;;
30173;SDS011;16985;50.814;8.530;2023-02-28T13:44:05;7.63;;;4.18;;
30173;SDS011;16985;50.814;8.530;2023-02-28T14:06:28;9.65;;;6.53;;
30173;SDS011;16985;50.814;8.530;2023-02-28T14:09:01;10.73;;;6.00;;
30173;SDS011;16985;50.814;8.530;2023-02-28T14:11:39;10.02;;;6.05;;
30173;SDS011;16985;50.814;8.530;2023-02-28T14:14:07;10.98;;;6.68;;
30173;SDS011;16985;50.814;8.530;2023-02-28T14:16:59;14.05;;;6.22;;
30173;SDS011;16985;50.814;8.530;2023-02-28T14:19:32;12.98;;;5.68;;
30173;SDS011;16985;50.814;8.530;2023-02-28T14:31:34;9.07;;;5.05;;
30173;SDS011;16985;50.814;8.530;2023-02-28T14:37:30;5.95;;;4.28;;
30173;SDS011;16985;50.814;8.530;2023-02-28T14:40:03;5.10;;;4.00;;
30173;SDS011;16985;50.814;8.530;2023-02-28T14:42:36;5.57;;;4.20;;
30173;SDS011;16985;50.814;8.530;2023-02-28T14:45:16;7.13;;;4.68;;
30173;SDS011;16985;50.814;8.530;2023-02-28T14:47:44;7.15;;;5.07;;
30173;SDS011;16985;50.814;8.530;2023-02-28T14:50:21;8.32;;;5.22;;
30173;SDS011;16985;50.814;8.530;2023-02-28T14:52:53;9.95;;;5.95;;
30173;SDS011;16985;50.814;8.530;2023-02-28T14:55:26;9.43;;;4.78;;
30173;SDS011;16985;50.814;8.530;2023-02-28T14:57:58;7.25;;;4.82;;
30173;SDS011;16985;50.814;8.530;2023-02-28T15:00:46;11.85;;;4.72;;
30173;SDS011;16985;50.814;8.530;2023-02-28T15:03:22;6.30;;;4.18;;
30173;SDS011;16985;50.814;8.530;2023-02-28T15:05:58;5.53;;;4.00;;
30173;SDS011;16985;50.814;8.530;2023-02-28T15:08:29;7.20;;;4.22;;
30173;SDS011;16985;50.814;8.530;2023-02-28T15:13:40;6.07;;;4.05;;
30173;SDS011;16985;50.814;8.530;2023-02-28T15:16:21;8.88;;;4.95;;
30173;SDS011;16985;50.814;8.530;2023-02-28T15:18:55;8.00;;;4.95;;
30173;SDS011;16985;50.814;8.530;2023-02-28T15:21:26;9.55;;;5.38;;
30173;SDS011;16985;50.814;8.530;2023-02-28T15:24:02;6.97;;;4.22;;
30173;SDS011;16985;50.814;8.530;2023-02-28T15:26:37;6.40;;;4.70;;
30173;SDS011;16985;50.814;8.530;2023-02-28T15:29:07;6.90;;;4.63;;
30173;SDS011;16985;50.814;8.530;2023-02-28T15:31:41;8.73;;;4.90;;
30173;SDS011;16985;50.814;8.530;2023-02-28T15:34:21;6.90;;;4.30;;
30173;SDS011;16985;50.814;8.530;2023-02-28T15:37:06;7.80;;;4.40;;
30173;SDS011;16985;50.814;8.530;2023-02-28T15:39:53;6.03;;;4.20;;
30173;SDS011;16985;50.814;8.530;2023-02-28T15:42:22;7.65;;;4.18;;
30173;SDS011;16985;50.814;8.530;2023-02-28T15:44:54;6.65;;;4.03;;
30173;SDS011;16985;50.814;8.530;2023-02-28T15:47:23;8.80;;;5.30;;
30173;SDS011;16985;50.814;8.530;2023-02-28T15:49:53;9.40;;;5.38;;
30173;SDS011;16985;50.814;8.530;2023-02-28T15:55:08;11.27;;;5.47;;
30173;SDS011;16985;50.814;8.530;2023-02-28T15:57:52;13.45;;;5.93;;
30173;SDS011;16985;50.814;8.530;2023-02-28T16:00:24;14.60;;;7.05;;
30173;SDS011;16985;50.814;8.530;2023-02-28T16:02:52;11.27;;;5.88;;
30173;SDS011;16985;50.814;8.530;2023-02-28T16:05:28;12.52;;;6.13;;
30173;SDS011;16985;50.814;8.530;2023-02-28T16:08:17;13.77;;;5.78;;
30173;SDS011;16985;50.814;8.530;2023-02-28T16:10:42;8.10;;;5.10;;
30173;SDS011;16985;50.814;8.530;2023-02-28T16:13:08;9.50;;;5.13;;
30173;SDS011;16985;50.814;8.530;2023-02-28T16:15:41;7.60;;;4.50;;
30173;SDS011;16985;50.814;8.530;2023-02-28T16:18:09;11.45;;;5.10;;
30173;SDS011;16985;50.814;8.530;2023-02-28T16:20:37;9.45;;;4.85;;
30173;SDS011;16985;50.814;8.530;2023-02-28T16:23:03;8.73;;;5.05;;
30173;SDS011;16985;50.814;8.530;2023-02-28T16:25:47;9.38;;;5.40;;
30173;SDS011;16985;50.814;8.530;2023-02-28T16:28:20;6.43;;;4.97;;
30173;SDS011;16985;50.814;8.530;2023-02-28T16:30:51;7.80;;;4.55;;
30173;SDS011;16985;50.814;8.530;2023-02-28T16:33:18;7.43;;;4.80;;
30173;SDS011;16985;50.814;8.530;2023-02-28T16:35:44;8.77;;;4.80;;
30173;SDS011;16985;50.814;8.530;2023-02-28T16:38:09;9.35;;;4.72;;
30173;SDS011;16985;50.814;8.530;2023-02-28T16:40:37;7.20;;;4.95;;
30173;SDS011;16985;50.814;8.530;2023-02-28T16:43:04;7.22;;;4.80;;
30173;SDS011;16985;50.814;8.530;2023-02-28T16:45:35;9.77;;;4.93;;
30173;SDS011;16985;50.814;8.530;2023-02-28T16:48:00;7.30;;;4.70;;
30173;SDS011;16985;50.814;8.530;2023-02-28T16:50:27;8.90;;;5.82;;
30173;SDS011;16985;50.814;8.530;2023-02-28T16:52:55;6.47;;;4.72;;
30173;SDS011;16985;50.814;8.530;2023-02-28T16:55:24;7.13;;;5.50;;
30173;SDS011;16985;50.814;8.530;2023-02-28T16:57:52;8.65;;;4.97;;
30173;SDS011;16985;50.814;8.530;2023-02-28T17:00:21;9.50;;;5.53;;
30173;SDS011;16985;50.814;8.530;2023-02-28T17:02:48;7.35;;;4.70;;
30173;SDS011;16985;50.814;8.530;2023-02-28T17:05:14;8.02;;;4.72;;
30173;SDS011;16985;50.814;8.530;2023-02-28T17:07:40;7.38;;;4.72;;
30173;SDS011;16985;50.814;8.530;2023-02-28T17:10:15;11.75;;;5.82;;
30173;SDS011;16985;50.814;8.530;2023-02-28T17:12:47;6.20;;;4.97;;
30173;SDS011;16985;50.814;8.530;2023-02-28T17:15:14;8.18;;;4.75;;
30173;SDS011;16985;50.814;8.530;2023-02-28T17:17:42;12.50;;;5.82;;
30173;SDS011;16985;50.814;8.530;2023-02-28T17:20:13;8.70;;;5.57;;
30173;SDS011;16985;50.814;8.530;2023-02-28T17:22:47;7.53;;;5.20;;
30173;SDS011;16985;50.814;8.530;2023-02-28T17:25:17;13.43;;;6.05;;
30173;SDS011;16985;50.814;8.530;2023-02-28T17:27:42;11.45;;;6.03;;
30173;SDS011;16985;50.814;8.530;2023-02-28T17:32:49;13.70;;;7.57;;
30173;SDS011;16985;50.814;8.530;2023-02-28T17:35:15;14.63;;;7.88;;
30173;SDS011;16985;50.814;8.530;2023-02-28T17:37:41;12.20;;;7.35;;
30173;SDS011;16985;50.814;8.530;2023-02-28T17:40:18;12.18;;;6.63;;